METAR Data
IDs: Format: Raw Decoded Include TAF

Data at: 0901 UTC 10 Dec 2022

KBFI 100853Z 14011KT 6SM BR OVC045 05/03 A2935 RMK AO2 RAE52 SLP938 P0002 60005 T00500028 56018
KBFI 100753Z AUTO 14009KT 8SM -RA OVC042 04/03 A2937 RMK AO2 SLP945 P0003 T00440033 400670017
KBFI 100653Z 12007KT 7SM -RA OVC040 04/03 A2938 RMK AO2 SLP947 P0000 T00440028
KBFI 100553Z 13012KT 8SM -RA OVC037 04/03 A2940 RMK AO2 SLP956 P0006 60030 T00440028 10056 20044 58031
KBFI 100453Z 12014G21KT 6SM -RA BR OVC031 04/03 A2944 RMK AO2 SLP970 P0008 T00440028
KBFI 100353Z 13010G21KT 7SM -RA OVC034 04/03 A2947 RMK AO2 SLP979 P0001 T00440028
KBFI 100253Z 13010KT 6SM -RA BR OVC017 04/03 A2949 RMK AO2 SLP987 P0002 60015 T00440028 56047
KBFI 100153Z 11012G20KT 3SM -RA BR OVC017 04/02 A2953 RMK AO2 PRESFR SLP998 P0011 T00440022
KBFI 100053Z 12005KT 6SM -RA OVC029 05/02 A2958 RMK AO2 SLP016 P0002 T00500022
KBFI 092353Z 14004KT 8SM -RA BKN018 OVC034 06/02 A2963 RMK AO2 RAE09B27 SLP034 P0000 60000 T00560022 10067 20039 58047
KBFI 092253Z 13004KT 7SM -RA BKN022 OVC034 06/02 A2968 RMK AO2 RAB20 SLP050 P0000 T00610017
KBFI 092153Z 13004KT 10SM BKN023 OVC050 07/01 A2973 RMK AO2 SLP067 T00670011
KBFI 092053Z 16003KT 10SM BKN023 OVC050 06/02 A2977 RMK AO2 SLP081 T00610017 58045
KBFI 091953Z 14005KT 10SM BKN065 OVC075 06/02 A2982 RMK AO2 SLP099 T00560022
KBFI 091853Z 17005KT 10SM FEW018 SCT070 05/03 A2987 RMK AO2 SLP114 T00500028
KBFI 091753Z 15005KT 10SM SCT018 OVC050 04/02 A2990 RMK AO2 SLP126 60004 T00390022 10039 20017 58006
KBFI 091700Z AUTO 15007KT 10SM SCT018 OVC050 03/02 A2992 RMK AO2 T00280022
KBFI 091653Z 15006KT 10SM SCT015 BKN018 OVC025 03/02 A2992 RMK AO2 SLP131 T00280017
KBFI 091553Z 15006KT 10SM FEW015 SCT018 BKN021 02/02 A2992 RMK AO2 SLP132 T00220017
KBFI 091549Z 15007KT 10SM FEW015 SCT018 BKN021 02/02 A2992 RMK AO2
KBFI 091500Z 14006KT 10SM FEW017 SCT026 02/02 A2993 RMK AO2 T00220017
KBFI 091453Z 14006KT 10SM BKN013 OVC026 02/02 A2993 RMK AO2 SLP134 60004 T00220017 58003
KBFI 091353Z 14008KT 10SM BKN013 OVC026 03/02 A2993 RMK AO2 UPE1254B38E40RAB1254E38 SLP135 P0004 T00280022
KBFI 091253Z 15010KT 8SM UP BKN013 OVC019 03/02 A2994 RMK AO2 UPB22E26B50RAB26E50 SLP138 P0000 T00280022
KBFI 091153Z 15007KT 10SM BKN015 OVC027 03/02 A2994 RMK AO2 RAE03UPB17E28 SLP137 P0000 60000 70005 T00280022 10044 20028 56007
KBFI 091053Z 15007KT 6SM -RA BR FEW011 OVC018 03/03 A2994 RMK AO2 RAB02UPB28E33 SLP139 P0000 T00280028
KBFI 091038Z 15008KT 6SM -RA BR SCT011 BKN018 OVC032 03/03 A2995 RMK AO2 RAB02UPB28E33 P0000 T00280028
KBFI 090953Z 16006KT 10SM SCT045 BKN060 OVC075 03/02 A2995 RMK AO2 RAB13E37 SLP141 P0000 T00280022
KBFI 090910Z 19007KT 10SM SCT015 BKN070 OVC090 04/02 A2995 RMK AO2 T00390022